Time;durP1;ratioP1;P1;durP2;ratioP2;P2;SDS_P1;SDS_P2;PMS_P1;PMS_P2;Temp;Humidity;BMP_temperature;BMP_pressure;BME280_temperature;BME280_humidity;BME280_pressure;Samples;Min_cycle;Max_cycle;Signal;HPM_P1;HPM_P2
2021/11/02 00:02:21;;;;;;;;;;;18.00;72.10;;;;;;4995231;28;95658;-66
2021/11/02 00:04:52;;;;;;;1.80;1.42;;;18.10;71.90;;;;;;4990049;28;96397;-66
2021/11/02 00:07:23;;;;;;;1.83;1.30;;;18.10;72.00;;;;;;4988748;28;96460;-66
2021/11/02 00:10:00;;;;;;;1.52;1.20;;;18.20;71.90;;;;;;4983188;28;95675;-68
2021/11/02 00:12:33;;;;;;;2.80;1.70;;;18.20;71.80;;;;;;4977308;28;96169;-66
2021/11/02 00:15:08;;;;;;;2.28;1.52;;;18.30;71.80;;;;;;4991002;28;95795;-67
2021/11/02 00:17:40;;;;;;;2.45;1.50;;;18.30;71.90;;;;;;4981642;28;97737;-67
2021/11/02 00:20:15;;;;;;;2.72;1.65;;;18.40;71.80;;;;;;4986420;28;97315;-67
2021/11/02 00:22:54;;;;;;;2.45;1.10;;;18.50;71.70;;;;;;4986614;28;97194;-66
2021/11/02 00:25:27;;;;;;;2.47;1.30;;;18.50;71.60;;;;;;4982067;28;96506;-67
2021/11/02 00:28:04;;;;;;;1.95;1.38;;;18.60;71.60;;;;;;4990511;28;96390;-68
2021/11/02 00:30:35;;;;;;;1.50;1.40;;;18.60;71.60;;;;;;4985067;28;97569;-68
2021/11/02 00:33:06;;;;;;;;;;;18.70;71.60;;;;;;4984229;28;95351;-68
2021/11/02 00:35:36;;;;;;;1.40;1.15;;;18.70;71.50;;;;;;4985665;28;95434;-68
2021/11/02 00:38:06;;;;;;;2.08;1.50;;;18.80;71.50;;;;;;4978045;28;99311;-67
2021/11/02 00:40:37;;;;;;;;;;;18.80;71.40;;;;;;4983611;28;97268;-68
2021/11/02 00:43:10;;;;;;;1.35;1.23;;;18.90;69.30;;;;;;4983076;28;95748;-68
2021/11/02 00:45:44;;;;;;;1.30;1.20;;;18.90;71.30;;;;;;4981623;28;95651;-66
2021/11/02 00:48:23;;;;;;;1.40;1.30;;;19.00;71.20;;;;;;4988679;28;96066;-67
2021/11/02 00:50:56;;;;;;;1.75;1.50;;;19.00;71.30;;;;;;4987784;28;96010;-66
2021/11/02 00:53:27;;;;;;;2.33;1.65;;;19.10;71.40;;;;;;4987609;28;95382;-67
2021/11/02 00:55:58;;;;;;;;;;;19.20;71.40;;;;;;4990687;28;95617;-67
2021/11/02 00:58:31;;;;;;;2.13;1.30;;;19.30;71.40;;;;;;4997912;28;98517;-68
2021/11/02 01:01:04;;;;;;;1.50;1.17;;;19.50;71.40;;;;;;5002231;28;96005;-68
2021/11/02 01:03:37;;;;;;;2.08;1.20;;;19.50;71.30;;;;;;4992753;28;95858;-69
2021/11/02 01:06:09;;;;;;;1.75;1.00;;;19.60;71.20;;;;;;4992032;28;95755;-68
2021/11/02 01:08:41;;;;;;;2.90;1.30;;;19.70;71.10;;;;;;4977168;28;96039;-70
2021/11/02 01:11:13;;;;;;;2.33;1.40;;;19.80;71.10;;;;;;5003753;28;96767;-68
2021/11/02 01:13:45;;;;;;;1.33;1.20;;;19.90;70.90;;;;;;5002497;28;95619;-69
2021/11/02 01:16:18;;;;;;;1.77;1.05;;;20.00;70.70;;;;;;4983917;28;95665;-70
2021/11/02 01:18:50;;;;;;;1.80;1.20;;;20.10;70.60;;;;;;4981868;28;96623;-69
2021/11/02 01:21:21;;;;;;;3.30;1.30;;;20.20;70.40;;;;;;4983139;28;96111;-68
2021/11/02 01:23:51;;;;;;;1.27;1.17;;;20.20;70.30;;;;;;4984444;28;95306;-71
2021/11/02 01:26:22;;;;;;;1.52;1.30;;;20.30;70.10;;;;;;4983593;28;95902;-69
2021/11/02 01:28:52;;;;;;;1.80;1.30;;;20.40;70.10;;;;;;4987381;28;96064;-69
2021/11/02 01:31:24;;;;;;;1.17;1.08;;;20.40;69.90;;;;;;4988191;28;95799;-69
2021/11/02 01:33:57;;;;;;;2.47;1.10;;;20.40;70.00;;;;;;4981472;28;95303;-69
2021/11/02 01:36:28;;;;;;;2.55;1.77;;;20.50;69.90;;;;;;4998108;28;95695;-69
2021/11/02 01:39:01;;;;;;;3.78;1.73;;;20.40;69.80;;;;;;4991023;28;99081;-69
2021/11/02 01:41:32;;;;;;;3.10;2.13;;;20.40;69.90;;;;;;4991199;28;98413;-69
2021/11/02 01:44:03;;;;;;;2.70;1.73;;;20.40;70.00;;;;;;5002372;28;95812;-69
2021/11/02 01:46:43;;;;;;;3.53;1.67;;;20.40;70.10;;;;;;4985223;28;95351;-67
2021/11/02 01:49:17;;;;;;;2.72;1.88;;;20.40;70.10;;;;;;4981692;28;98249;-69
2021/11/02 01:51:51;;;;;;;3.30;1.98;;;20.50;70.10;;;;;;4981664;28;97527;-70
2021/11/02 01:54:22;;;;;;;1.20;1.10;;;20.50;70.10;;;;;;5020779;27;95787;-66
2021/11/02 01:56:52;;;;;;;2.53;1.50;;;20.50;70.20;;;;;;4970295;28;95414;-68
2021/11/02 01:59:27;;;;;;;1.85;1.35;;;20.50;70.10;;;;;;4995934;28;98031;-67
2021/11/02 02:02:34;;;;;;;3.92;1.48;;;20.60;70.20;;;;;;4986009;28;97867;-69
2021/11/02 02:05:30;;;;;;;4.32;1.95;;;20.60;70.10;;;;;;4997438;28;99984;-67
2021/11/02 02:08:26;;;;;;;1.67;1.15;;;20.60;70.10;;;;;;4975485;28;95849;-67
2021/11/02 02:11:10;;;;;;;2.38;1.70;;;20.60;70.10;;;;;;4985066;28;95953;-67
2021/11/02 02:14:16;;;;;;;2.45;1.42;;;20.70;70.20;;;;;;4983142;28;96266;-67
2021/11/02 02:16:50;;;;;;;4.22;1.38;;;20.70;70.80;;;;;;5001902;28;95437;-70
2021/11/02 02:19:51;;;;;;;4.78;1.38;;;20.80;70.20;;;;;;4980446;28;95923;-67
2021/11/02 02:22:38;;;;;;;3.30;1.33;;;20.80;69.90;;;;;;4983760;28;96037;-67
2021/11/02 02:25:21;;;;;;;1.98;1.50;;;20.90;69.80;;;;;;4995071;28;97778;-66
2021/11/02 02:28:22;;;;;;;3.63;1.70;;;20.90;69.80;;;;;;4992279;28;95828;-66
2021/11/02 02:31:00;;;;;;;5.22;2.13;;;20.90;70.10;;;;;;4983795;28;95967;-68
2021/11/02 02:33:44;;;;;;;5.80;1.67;;;20.90;70.20;;;;;;4981729;28;96418;-69
2021/11/02 02:36:26;;;;;;;4.28;1.50;;;20.90;70.20;;;;;;5007504;27;97414;-67
2021/11/02 02:39:03;;;;;;;2.38;1.50;;;20.90;70.10;;;;;;4986845;28;95946;-68
2021/11/02 02:41:40;;;;;;;2.20;1.52;;;20.90;70.10;;;;;;4982220;28;95832;-67
2021/11/02 02:44:13;;;;;;;2.25;1.38;;;20.90;70.20;;;;;;4985480;28;98779;-67
2021/11/02 02:46:45;;;;;;;2.28;1.27;;;21.00;70.00;;;;;;4989141;28;96067;-68
2021/11/02 02:49:19;;;;;;;2.13;1.20;;;20.90;69.60;;;;;;4982118;28;95920;-68
2021/11/02 02:51:51;;;;;;;1.67;1.10;;;21.00;69.30;;;;;;4988396;28;95952;-66
2021/11/02 02:54:24;;;;;;;3.38;1.50;;;20.90;68.70;;;;;;4995197;28;96192;-67
2021/11/02 02:57:01;;;;;;;2.88;1.40;;;20.90;68.40;;;;;;4983381;28;95936;-66
2021/11/02 02:59:35;;;;;;;2.53;1.30;;;20.90;68.20;;;;;;4992351;28;95336;-66
2021/11/02 03:02:11;;;;;;;1.25;1.02;;;21.00;68.00;;;;;;5004967;28;95972;-67
2021/11/02 03:04:45;;;;;;;2.20;1.27;;;20.90;67.40;;;;;;4985827;28;95695;-67
2021/11/02 03:07:23;;;;;;;2.10;1.10;;;20.90;67.20;;;;;;4984583;28;97628;-70
2021/11/02 03:09:59;;;;;;;4.60;1.60;;;20.90;67.10;;;;;;4988356;28;98249;-65
2021/11/02 03:12:35;;;;;;;1.77;1.23;;;20.90;66.80;;;;;;4988842;28;95768;-68
2021/11/02 03:18:18;;;;;;;3.10;1.23;;;21.00;66.60;;;;;;5003125;28;97594;-70
2021/11/02 03:54:45;;;;;;;1.13;0.90;;;20.80;61.30;;;;;;5009967;28;95212;-71
2021/11/02 04:00:20;;;;;;;0.82;0.70;;;20.80;60.90;;;;;;4998207;28;97247;-70
2021/11/02 04:23:43;;;;;;;1.25;1.02;;;20.80;59.20;;;;;;4988218;28;98968;-68
2021/11/02 05:06:57;;;;;;;1.45;0.70;;;20.80;57.20;;;;;;4995933;28;95390;-69
2021/11/02 05:46:47;;;;;;;0.68;0.68;;;20.80;56.40;;;;;;4994401;28;96927;-67
2021/11/02 05:47:28;;;;;;;0.60;0.60;;;20.80;55.60;;;;;;5017018;27;97644;-66
2021/11/02 05:55:57;;;;;;;1.05;0.55;;;20.80;55.30;;;;;;5004321;28;98531;-69
2021/11/02 06:01:12;;;;;;;1.15;0.90;;;20.80;55.10;;;;;;5020976;27;95284;-70
2021/11/02 06:09:31;;;;;;;1.35;0.60;;;20.80;55.00;;;;;;4986920;28;95771;-71
2021/11/02 06:29:33;;;;;;;2.17;0.57;;;20.80;54.30;;;;;;4990029;28;95773;-70
2021/11/02 06:32:14;;;;;;;1.40;0.70;;;20.80;54.20;;;;;;4995546;28;95232;-70
2021/11/02 06:35:08;;;;;;;0.90;0.52;;;20.80;54.10;;;;;;4982919;28;95943;-70
2021/11/02 06:43:16;;;;;;;1.45;0.85;;;20.80;53.90;;;;;;4986051;28;95729;-69
2021/11/02 06:57:32;;;;;;;0.60;0.40;;;20.90;54.30;;;;;;4982602;28;95242;-70
2021/11/02 07:20:34;;;;;;;1.80;0.85;;;21.10;56.20;;;;;;4988508;28;95694;-69
2021/11/02 07:24:11;;;;;;;0.80;0.80;;;21.10;56.20;;;;;;4987261;28;96344;-70
2021/11/02 07:26:36;;;;;;;1.90;0.80;;;21.10;56.30;;;;;;4984079;28;96345;-70
2021/11/02 08:47:34;;;;;;;1.33;0.98;;;21.60;59.60;;;;;;4980698;28;96582;-68
2021/11/02 08:50:11;;;;;;;2.47;0.82;;;21.60;60.30;;;;;;4985908;28;95828;-70
2021/11/02 08:52:50;;;;;;;0.60;0.60;;;21.50;60.50;;;;;;4983167;28;95811;-67
2021/11/02 08:55:21;;;;;;;1.52;0.80;;;21.50;61.00;;;;;;4984143;28;95722;-70
2021/11/02 08:57:56;;;;;;;1.42;0.57;;;21.50;61.50;;;;;;4990751;28;96384;-70
2021/11/02 09:00:28;;;;;;;1.90;0.95;;;21.50;61.80;;;;;;4995368;28;95737;-68
2021/11/02 09:03:08;;;;;;;1.88;0.70;;;21.50;62.20;;;;;;4982347;28;95362;-68
2021/11/02 09:05:41;;;;;;;0.95;0.60;;;21.50;62.40;;;;;;4988572;28;95237;-70
2021/11/02 09:08:14;;;;;;;1.25;1.15;;;21.40;63.30;;;;;;4983269;28;96807;-67
2021/11/02 09:10:48;;;;;;;1.65;0.50;;;21.40;62.70;;;;;;4992822;28;95769;-68
2021/11/02 09:13:23;;;;;;;0.52;0.52;;;21.50;63.10;;;;;;4986497;28;95601;-68
2021/11/02 09:16:02;;;;;;;0.57;0.57;;;21.50;63.80;;;;;;4990483;28;95181;-69
2021/11/02 09:18:34;;;;;;;0.52;0.50;;;21.40;63.60;;;;;;4986208;28;95950;-68
2021/11/02 09:21:06;;;;;;;1.50;0.55;;;21.40;63.60;;;;;;4986062;28;95925;-69
2021/11/02 09:23:41;;;;;;;0.63;0.63;;;21.40;63.70;;;;;;4997175;28;95309;-68
2021/11/02 09:26:15;;;;;;;4.15;0.93;;;21.40;64.10;;;;;;4987952;28;95853;-65
2021/11/02 09:28:50;;;;;;;2.80;1.10;;;21.40;64.50;;;;;;4987955;28;97002;-67
2021/11/02 09:31:27;;;;;;;2.95;1.00;;;21.40;64.60;;;;;;4985453;28;95810;-68
2021/11/02 09:34:00;;;;;;;4.72;1.30;;;21.40;64.70;;;;;;4988409;28;95409;-68
2021/11/02 09:36:43;;;;;;;2.50;0.82;;;21.30;65.10;;;;;;4982820;28;95478;-69
2021/11/02 09:39:18;;;;;;;3.00;1.23;;;21.40;65.50;;;;;;4990301;28;96087;-67
2021/11/02 09:42:07;;;;;;;3.63;1.33;;;21.40;65.50;;;;;;4993648;28;96532;-67
2021/11/02 09:44:57;;;;;;;1.90;1.20;;;21.30;65.60;;;;;;4989418;28;96555;-68
2021/11/02 09:47:49;;;;;;;1.50;1.10;;;21.30;65.50;;;;;;4992316;28;96246;-70
2021/11/02 09:50:40;;;;;;;3.13;1.15;;;21.20;65.80;;;;;;4991460;28;95370;-69
2021/11/02 09:53:17;;;;;;;3.35;1.40;;;21.20;66.10;;;;;;4984546;28;95732;-70
2021/11/02 09:56:21;;;;;;;3.97;1.27;;;21.20;66.30;;;;;;4986586;28;95834;-68
2021/11/02 09:59:21;;;;;;;6.85;2.35;;;21.20;66.40;;;;;;4988620;28;95818;-69
2021/11/02 10:02:18;;;;;;;6.20;3.53;;;21.20;66.80;;;;;;4985441;28;95530;-68
2021/11/02 10:05:00;;;;;;;6.78;3.00;;;21.10;66.90;;;;;;5000600;28;96271;-67
2021/11/02 10:08:01;;;;;;;4.97;2.40;;;21.20;67.30;;;;;;5000939;28;95918;-67
2021/11/02 10:10:52;;;;;;;3.35;2.42;;;21.20;67.50;;;;;;4983052;28;95808;-64
2021/11/02 10:13:47;;;;;;;5.75;2.70;;;21.30;67.50;;;;;;4987330;28;97009;-66
2021/11/02 10:16:53;;;;;;;7.53;3.63;;;21.50;67.30;;;;;;5002137;28;95823;-66
2021/11/02 10:19:40;;;;;;;5.20;2.95;;;21.60;67.20;;;;;;4985654;28;96781;-66
2021/11/02 10:22:22;;;;;;;13.77;4.13;;;21.60;66.90;;;;;;4988223;28;95338;-66
2021/11/02 10:25:15;;;;;;;5.93;2.95;;;21.50;67.00;;;;;;4983655;28;96679;-66
2021/11/02 10:28:14;;;;;;;10.43;3.67;;;21.50;67.30;;;;;;4979534;28;96517;-66
2021/11/02 10:31:07;;;;;;;12.60;4.25;;;21.40;67.20;;;;;;4987896;28;95941;-66
2021/11/02 10:33:48;;;;;;;5.15;3.20;;;21.40;67.30;;;;;;4985658;28;96160;-66
2021/11/02 10:36:48;;;;;;;3.72;2.38;;;21.40;67.10;;;;;;4987571;28;97005;-66
2021/11/02 10:39:43;;;;;;;4.95;2.28;;;21.40;67.20;;;;;;4986411;28;97973;-67
2021/11/02 10:42:42;;;;;;;5.35;2.20;;;21.30;67.10;;;;;;4984441;28;95293;-66
2021/11/02 10:45:27;;;;;;;4.43;2.03;;;21.30;67.20;;;;;;5002247;28;96170;-66
2021/11/02 10:48:10;;;;;;;3.42;2.30;;;21.30;67.00;;;;;;4988674;28;98988;-65
2021/11/02 10:50:49;;;;;;;3.72;2.17;;;21.30;67.10;;;;;;4989056;28;97651;-67
2021/11/02 10:53:46;;;;;;;7.20;1.92;;;21.40;66.90;;;;;;5004307;28;95362;-67
2021/11/02 10:56:45;;;;;;;2.92;1.98;;;21.40;66.90;;;;;;5002851;28;95813;-67
2021/11/02 10:59:17;;;;;;;2.95;2.25;;;21.40;66.90;;;;;;4984559;28;96126;-67
2021/11/02 11:01:49;;;;;;;3.33;1.75;;;21.40;66.90;;;;;;4986504;28;96084;-67
2021/11/02 11:04:24;;;;;;;3.55;2.20;;;21.30;66.80;;;;;;4987658;28;95797;-68
2021/11/02 11:06:58;;;;;;;2.33;1.67;;;21.40;66.90;;;;;;4988300;28;95594;-67
2021/11/02 11:09:31;;;;;;;2.13;1.80;;;21.40;66.90;;;;;;4987295;28;96095;-67
2021/11/02 11:12:06;;;;;;;3.47;1.92;;;21.30;66.80;;;;;;4988908;28;96767;-67
2021/11/02 11:14:40;;;;;;;2.20;1.77;;;21.30;66.70;;;;;;4990334;28;95241;-67
2021/11/02 11:17:16;;;;;;;2.08;1.67;;;21.40;66.70;;;;;;4987553;28;95726;-67
2021/11/02 11:20:16;;;;;;;1.77;1.60;;;21.30;66.70;;;;;;4992481;28;95706;-66
2021/11/02 11:22:49;;;;;;;4.50;1.85;;;21.30;66.70;;;;;;4990688;28;95864;-66
2021/11/02 11:25:45;;;;;;;1.60;1.50;;;21.30;66.60;;;;;;4990329;28;95783;-67
2021/11/02 11:28:18;;;;;;;2.53;2.05;;;21.30;66.70;;;;;;4974479;28;100340;-67
2021/11/02 11:30:53;;;;;;;2.63;2.00;;;21.30;66.60;;;;;;4990507;28;96126;-67
2021/11/02 11:33:29;;;;;;;3.03;2.03;;;21.30;66.70;;;;;;4986167;28;95994;-66
2021/11/02 11:36:07;;;;;;;2.55;1.60;;;21.30;66.60;;;;;;4993032;28;95715;-66
2021/11/02 11:38:42;;;;;;;3.17;1.98;;;21.30;66.50;;;;;;4991236;28;96862;-66
2021/11/02 11:41:15;;;;;;;2.20;1.92;;;21.30;66.40;;;;;;5006415;28;98306;-66
2021/11/02 11:43:49;;;;;;;2.28;1.95;;;21.30;66.60;;;;;;4989693;28;96316;-67
2021/11/02 11:46:22;;;;;;;3.95;2.00;;;21.30;66.50;;;;;;4991950;28;96393;-67
2021/11/02 11:49:00;;;;;;;2.88;2.05;;;21.30;66.40;;;;;;5003119;28;95739;-68
2021/11/02 11:51:32;;;;;;;5.15;2.08;;;21.30;66.50;;;;;;4976531;28;98256;-67
2021/11/02 11:54:13;;;;;;;2.45;1.83;;;21.30;66.50;;;;;;4990624;28;96955;-67
2021/11/02 11:56:44;;;;;;;3.53;1.70;;;21.30;66.50;;;;;;4991988;28;96567;-68
2021/11/02 11:59:18;;;;;;;;;;;21.30;66.50;;;;;;4993554;28;96677;-67
2021/11/02 12:02:36;;;;;;;2.20;1.60;;;21.30;66.50;;;;;;4991869;28;95690;-67
2021/11/02 12:05:17;;;;;;;2.35;1.95;;;21.30;66.60;;;;;;4987089;28;96632;-68
2021/11/02 12:08:07;;;;;;;3.15;1.80;;;21.30;66.50;;;;;;4986172;28;95486;-67
2021/11/02 12:10:40;;;;;;;2.00;1.50;;;21.20;66.50;;;;;;4990167;28;95264;-68
2021/11/02 12:13:15;;;;;;;2.78;2.15;;;21.30;66.60;;;;;;4989948;28;96295;-67
2021/11/02 12:16:00;;;;;;;6.32;2.42;;;21.30;67.00;;;;;;4990749;28;96080;-68
2021/11/02 12:18:37;;;;;;;5.70;2.45;;;21.40;67.00;;;;;;5003992;27;96041;-68
2021/11/02 12:21:17;;;;;;;3.45;2.35;;;21.40;66.90;;;;;;4991977;28;95196;-69
2021/11/02 12:23:51;;;;;;;3.85;2.55;;;21.40;66.80;;;;;;4989582;28;96097;-68
2021/11/02 12:26:22;;;;;;;3.58;2.00;;;21.40;66.70;;;;;;4991113;28;96235;-68
2021/11/02 12:28:56;;;;;;;4.00;2.30;;;21.50;66.70;;;;;;4987224;28;95279;-68
2021/11/02 12:31:26;;;;;;;3.17;1.88;;;21.40;66.70;;;;;;4992254;28;95926;-69
2021/11/02 12:33:59;;;;;;;;;;;21.40;66.70;;;;;;4993052;28;95900;-67
2021/11/02 12:36:29;;;;;;;3.47;2.50;;;21.40;66.70;;;;;;4993432;28;95785;-69
2021/11/02 12:39:05;;;;;;;4.80;2.42;;;21.40;66.70;;;;;;4992311;28;95803;-68
2021/11/02 12:41:46;;;;;;;3.95;2.05;;;21.40;66.80;;;;;;4992723;28;95780;-69
2021/11/02 12:44:16;;;;;;;5.43;2.15;;;21.40;66.90;;;;;;4993884;28;96232;-70
2021/11/02 12:46:48;;;;;;;5.40;3.08;;;21.40;66.70;;;;;;5008390;28;97864;-70
2021/11/02 12:49:29;;;;;;;5.05;2.40;;;21.40;66.80;;;;;;5010688;27;95678;-68
2021/11/02 12:52:03;;;;;;;3.42;2.20;;;21.40;67.00;;;;;;4994551;28;95988;-68
2021/11/02 12:54:37;;;;;;;4.85;2.60;;;21.40;66.80;;;;;;4990485;28;97308;-69
2021/11/02 12:57:16;;;;;;;3.22;1.75;;;21.40;66.90;;;;;;4991798;28;95355;-67
2021/11/02 12:59:59;;;;;;;3.08;2.50;;;21.40;66.90;;;;;;5010704;28;95905;-67
2021/11/02 13:02:36;;;;;;;4.25;2.20;;;21.40;66.90;;;;;;5004506;28;95326;-69
2021/11/02 13:05:23;;;;;;;3.63;1.85;;;21.30;66.80;;;;;;4988977;28;96384;-68
2021/11/02 13:08:18;;;;;;;4.03;2.70;;;21.40;65.10;;;;;;5003547;28;95368;-69
2021/11/02 13:10:53;;;;;;;5.03;2.50;;;21.30;66.80;;;;;;5020874;27;96369;-68
2021/11/02 13:13:26;;;;;;;3.30;2.03;;;21.30;66.80;;;;;;4986808;28;95931;-68
2021/11/02 13:15:59;;;;;;;6.15;2.20;;;21.30;66.90;;;;;;4990826;28;96119;-67
2021/11/02 13:18:40;;;;;;;4.60;2.38;;;21.30;67.00;;;;;;4992067;28;95823;-68
2021/11/02 13:21:25;;;;;;;3.70;2.00;;;21.30;66.90;;;;;;4994323;28;95264;-68
2021/11/02 13:24:04;;;;;;;3.40;1.75;;;21.30;67.10;;;;;;4994957;28;96257;-68
2021/11/02 13:26:41;;;;;;;3.58;1.77;;;21.30;66.90;;;;;;4986307;28;95407;-68
2021/11/02 13:29:27;;;;;;;3.78;2.15;;;21.20;66.80;;;;;;4985447;28;95417;-67
2021/11/02 13:32:05;;;;;;;2.80;1.80;;;21.20;67.00;;;;;;4992527;28;95505;-69
2021/11/02 13:34:42;;;;;;;3.15;2.10;;;21.20;66.80;;;;;;4995773;28;95342;-67
2021/11/02 13:37:18;;;;;;;3.80;1.85;;;21.20;66.80;;;;;;4989252;28;96106;-67
2021/11/02 13:39:54;;;;;;;4.90;2.45;;;21.10;66.70;;;;;;4999605;28;95572;-66
2021/11/02 13:42:49;;;;;;;2.38;1.73;;;21.10;66.80;;;;;;4993755;28;96091;-66
2021/11/02 13:45:24;;;;;;;9.18;2.35;;;21.00;66.80;;;;;;4992865;28;95935;-67
2021/11/02 13:47:54;;;;;;;5.50;1.88;;;21.00;66.80;;;;;;4977209;28;97942;-67
2021/11/02 13:50:27;;;;;;;2.47;2.00;;;21.00;66.90;;;;;;4992993;28;97411;-67
2021/11/02 13:52:59;;;;;;;2.10;1.90;;;21.00;66.90;;;;;;4989259;28;95324;-67
2021/11/02 13:55:31;;;;;;;2.45;1.67;;;20.90;67.00;;;;;;4992886;28;95832;-68
2021/11/02 13:58:02;;;;;;;2.42;1.52;;;21.00;65.20;;;;;;4990795;28;96380;-67
2021/11/02 14:00:34;;;;;;;3.25;1.40;;;20.90;67.10;;;;;;4977517;28;97895;-67
2021/11/02 14:03:13;;;;;;;3.00;1.50;;;20.90;67.00;;;;;;4989369;28;95340;-66
2021/11/02 14:05:47;;;;;;;2.50;1.75;;;20.90;67.10;;;;;;4990998;28;95583;-68
2021/11/02 14:08:23;;;;;;;4.88;1.30;;;20.80;67.00;;;;;;4990326;28;99065;-68
2021/11/02 14:10:59;;;;;;;3.55;1.70;;;20.80;67.10;;;;;;4993551;28;95740;-67
2021/11/02 14:13:46;;;;;;;2.72;1.50;;;20.80;67.10;;;;;;4992448;28;95359;-68
2021/11/02 14:16:37;;;;;;;2.42;1.55;;;20.80;67.10;;;;;;5004467;28;95843;-68
2021/11/02 14:19:34;;;;;;;3.67;1.70;;;20.80;67.00;;;;;;4987907;28;95884;-68
2021/11/02 14:22:06;;;;;;;3.55;1.73;;;20.80;67.00;;;;;;5006301;28;95665;-67
2021/11/02 14:24:40;;;;;;;2.90;1.30;;;20.70;66.90;;;;;;4987467;28;95615;-67
2021/11/02 14:27:13;;;;;;;3.83;1.25;;;20.70;67.00;;;;;;4983810;28;95373;-67
2021/11/02 14:29:51;;;;;;;2.92;1.15;;;20.70;66.90;;;;;;4989160;28;96196;-67
2021/11/02 14:32:38;;;;;;;8.48;1.73;;;20.70;66.90;;;;;;5001296;28;97772;-67
2021/11/02 14:35:33;;;;;;;1.25;1.15;;;20.70;66.80;;;;;;4989415;28;95857;-68
2021/11/02 14:38:18;;;;;;;3.35;1.38;;;20.70;64.90;;;;;;4990070;28;95270;-67
2021/11/02 14:41:29;;;;;;;;;;;20.60;66.60;;;;;;4986902;28;96168;-68
2021/11/02 14:44:16;;;;;;;4.38;1.10;;;20.70;66.50;;;;;;5004865;28;95683;-68
2021/11/02 14:47:02;;;;;;;3.10;1.50;;;20.60;66.50;;;;;;5016516;28;95551;-68
2021/11/02 14:49:36;;;;;;;3.58;1.27;;;20.60;66.50;;;;;;4982225;28;98295;-68
2021/11/02 14:52:24;;;;;;;1.83;1.08;;;20.60;66.50;;;;;;4987686;28;96078;-68
2021/11/02 14:54:55;;;;;;;3.10;1.20;;;20.60;66.40;;;;;;5029067;27;96141;-68
2021/11/02 14:57:27;;;;;;;2.33;1.03;;;20.60;66.30;;;;;;4996042;28;95649;-67
2021/11/02 15:00:03;;;;;;;1.50;1.00;;;20.60;66.30;;;;;;5006770;28;95523;-69
2021/11/02 15:02:40;;;;;;;1.05;0.85;;;20.60;66.20;;;;;;4992701;28;96083;-67
2021/11/02 15:05:22;;;;;;;1.48;1.00;;;20.60;66.20;;;;;;4993459;28;95867;-65
2021/11/02 15:07:54;;;;;;;1.35;1.00;;;20.60;64.20;;;;;;4981093;28;95744;-67
2021/11/02 15:10:25;;;;;;;1.92;0.90;;;20.60;66.10;;;;;;4991635;28;95761;-69
2021/11/02 15:12:58;;;;;;;1.08;0.80;;;20.60;66.00;;;;;;4995369;28;95528;-68
2021/11/02 15:15:30;;;;;;;1.00;1.00;;;20.60;65.90;;;;;;4990611;28;96648;-66
2021/11/02 15:18:11;;;;;;;0.95;0.70;;;20.60;65.90;;;;;;4990253;28;95413;-66
2021/11/02 15:20:43;;;;;;;2.53;0.70;;;20.60;65.90;;;;;;4988470;28;95128;-67
2021/11/02 15:23:13;;;;;;;1.90;0.75;;;20.60;65.80;;;;;;4995773;28;95945;-67
2021/11/02 15:25:44;;;;;;;2.37;1.13;;;20.60;65.70;;;;;;4990050;28;96256;-68
2021/11/02 15:28:17;;;;;;;1.27;0.80;;;20.60;65.70;;;;;;4982886;28;95450;-66
2021/11/02 15:31:05;;;;;;;1.42;0.90;;;20.60;65.50;;;;;;4994003;28;95911;-68
2021/11/02 15:33:40;;;;;;;1.15;0.80;;;20.60;65.60;;;;;;4997693;28;96380;-67
2021/11/02 15:36:11;;;;;;;1.20;1.00;;;20.60;65.50;;;;;;5004091;28;95283;-68
2021/11/02 15:38:55;;;;;;;1.83;0.90;;;20.60;65.40;;;;;;4994010;28;95315;-67
2021/11/02 15:41:26;;;;;;;1.13;0.82;;;20.60;65.40;;;;;;4992998;28;100154;-67
2021/11/02 15:44:03;;;;;;;2.85;0.90;;;20.60;65.40;;;;;;4986770;28;96372;-67
2021/11/02 15:46:41;;;;;;;0.63;0.63;;;20.60;65.30;;;;;;4994233;28;96324;-68
2021/11/02 15:49:14;;;;;;;1.95;0.75;;;20.60;65.30;;;;;;4995233;28;95221;-68
2021/11/02 15:51:59;;;;;;;1.10;0.70;;;20.60;65.10;;;;;;4995829;28;95239;-66
2021/11/02 15:54:30;;;;;;;0.75;0.65;;;20.60;65.20;;;;;;5012425;28;99092;-67
2021/11/02 15:57:11;;;;;;;1.30;0.73;;;20.60;65.10;;;;;;4989415;28;96036;-66
2021/11/02 15:59:42;;;;;;;;;;;20.60;64.90;;;;;;4968098;28;95360;-66
2021/11/02 16:02:29;;;;;;;3.17;1.33;;;20.60;64.90;;;;;;4986191;28;95406;-67
2021/11/02 16:05:26;;;;;;;0.88;0.70;;;20.60;64.90;;;;;;5020053;27;96483;-67
2021/11/02 16:08:21;;;;;;;1.70;0.75;;;20.60;64.80;;;;;;4988551;28;95904;-68
2021/11/02 16:11:08;;;;;;;1.45;0.80;;;20.60;64.80;;;;;;4990825;28;96016;-67
2021/11/02 16:13:47;;;;;;;;;;;20.60;64.70;;;;;;4991892;28;95785;-66
2021/11/02 16:16:21;;;;;;;0.88;0.70;;;20.60;64.70;;;;;;4988157;28;96551;-68
2021/11/02 16:19:04;;;;;;;4.07;1.20;;;20.60;64.60;;;;;;4987348;28;95844;-68
2021/11/02 16:21:37;;;;;;;2.65;0.77;;;20.60;64.50;;;;;;4975826;28;95738;-68
2021/11/02 16:24:37;;;;;;;0.98;0.60;;;20.60;64.50;;;;;;4986785;28;95592;-68
2021/11/02 16:27:25;;;;;;;1.25;0.82;;;20.60;64.60;;;;;;4970456;28;98377;-67
2021/11/02 16:29:56;;;;;;;1.38;0.70;;;20.60;64.50;;;;;;4972191;28;97292;-69
2021/11/02 16:32:49;;;;;;;1.55;1.00;;;20.60;64.50;;;;;;4965514;28;96144;-68
2021/11/02 16:35:58;;;;;;;3.15;0.93;;;20.60;64.40;;;;;;4980827;28;95495;-67
2021/11/02 16:38:37;;;;;;;2.95;0.85;;;20.60;64.30;;;;;;4989665;28;95887;-68
2021/11/02 16:41:43;;;;;;;0.90;0.73;;;20.60;64.30;;;;;;4989298;28;95524;-68
2021/11/02 16:44:33;;;;;;;2.05;0.70;;;20.60;64.30;;;;;;4981662;28;95425;-67
2021/11/02 16:47:16;;;;;;;2.28;0.98;;;20.60;64.40;;;;;;4967855;28;95907;-68
2021/11/02 16:50:05;;;;;;;3.78;0.77;;;20.60;64.20;;;;;;4945476;28;96029;-65
2021/11/02 16:52:40;;;;;;;2.72;0.88;;;20.60;64.10;;;;;;4984057;28;95927;-68
2021/11/02 16:55:24;;;;;;;1.88;1.00;;;20.60;64.10;;;;;;4981210;28;95336;-69
2021/11/02 16:58:20;;;;;;;1.65;0.93;;;20.60;64.00;;;;;;4989594;28;95684;-68
2021/11/02 17:01:17;;;;;;;1.67;0.80;;;20.60;64.10;;;;;;4979639;28;96106;-68
2021/11/02 17:04:20;;;;;;;2.33;0.70;;;20.60;64.20;;;;;;4981880;28;95837;-67
2021/11/02 17:07:13;;;;;;;0.77;0.60;;;20.60;64.10;;;;;;4968553;28;95839;-67
2021/11/02 17:10:29;;;;;;;1.02;0.70;;;20.60;64.10;;;;;;4916032;28;95394;-67
2021/11/02 17:13:27;;;;;;;0.90;0.90;;;20.60;64.00;;;;;;4928922;28;96899;-67
2021/11/02 17:16:19;;;;;;;2.33;0.90;;;20.60;64.00;;;;;;4928426;28;95892;-67
2021/11/02 17:19:04;;;;;;;1.77;1.08;;;20.50;64.00;;;;;;4926316;28;95271;-67
2021/11/02 17:21:37;;;;;;;1.08;0.80;;;20.60;64.10;;;;;;4908917;28;97634;-67
2021/11/02 17:24:30;;;;;;;0.85;0.82;;;20.50;64.10;;;;;;4909833;28;97091;-66
2021/11/02 17:27:16;;;;;;;1.23;0.80;;;20.60;64.00;;;;;;4904018;28;97158;-67
2021/11/02 17:29:59;;;;;;;0.95;0.80;;;20.60;63.90;;;;;;4921759;28;95719;-67
2021/11/02 17:32:48;;;;;;;5.97;1.13;;;20.60;63.80;;;;;;4930926;28;95588;-67
2021/11/02 17:35:23;;;;;;;1.90;0.82;;;20.60;63.90;;;;;;4933666;28;95639;-68
2021/11/02 17:38:03;;;;;;;1.35;0.80;;;20.60;63.80;;;;;;4930780;28;95866;-67
2021/11/02 17:40:40;;;;;;;1.35;0.90;;;20.50;63.70;;;;;;4926509;28;95963;-67
2021/11/02 17:43:29;;;;;;;1.13;0.90;;;20.50;63.70;;;;;;4924111;28;95713;-67
2021/11/02 17:46:17;;;;;;;1.63;0.65;;;20.50;64.30;;;;;;4912344;28;95903;-67
2021/11/02 17:49:02;;;;;;;0.80;0.80;;;20.50;63.60;;;;;;5004528;28;97048;-66
2021/11/02 17:51:59;;;;;;;4.13;3.90;;;20.50;63.60;;;;;;4977233;28;98415;-67
2021/11/02 17:54:43;;;;;;;2.03;0.90;;;20.50;63.80;;;;;;4992139;28;95482;-68
2021/11/02 17:57:18;;;;;;;2.90;1.27;;;20.50;63.50;;;;;;4988731;28;96173;-66
2021/11/02 18:00:05;;;;;;;1.88;0.90;;;20.50;63.60;;;;;;4978683;28;95811;-67
2021/11/02 18:03:00;;;;;;;1.95;1.05;;;20.50;63.50;;;;;;4942040;28;95622;-67
2021/11/02 18:05:41;;;;;;;1.15;0.88;;;20.50;63.60;;;;;;4943157;28;95227;-65
2021/11/02 18:08:22;;;;;;;1.77;1.15;;;20.50;63.40;;;;;;4944982;28;96260;-68
2021/11/02 18:10:59;;;;;;;1.00;1.00;;;20.50;63.50;;;;;;4948223;28;95900;-67
2021/11/02 18:13:43;;;;;;;0.80;0.80;;;20.50;63.50;;;;;;4939435;28;95736;-67
2021/11/02 18:16:37;;;;;;;2.55;0.90;;;20.50;63.60;;;;;;4902644;28;95250;-66
2021/11/02 18:19:25;;;;;;;1.40;0.95;;;20.50;63.60;;;;;;4964107;28;97996;-68
2021/11/02 18:22:11;;;;;;;1.48;0.70;;;20.50;63.50;;;;;;4890848;28;95599;-67
2021/11/02 18:24:44;;;;;;;2.15;1.05;;;20.50;63.50;;;;;;4948057;28;95606;-67
2021/11/02 18:27:18;;;;;;;1.42;0.90;;;20.50;63.50;;;;;;4943731;28;95974;-67
2021/11/02 18:30:08;;;;;;;1.58;0.90;;;20.50;63.70;;;;;;4943983;28;95969;-67
2021/11/02 18:33:04;;;;;;;1.25;1.05;;;20.50;63.70;;;;;;4947997;28;97693;-67
2021/11/02 18:35:42;;;;;;;2.22;1.02;;;20.50;63.60;;;;;;4986114;28;95728;-67
2021/11/02 18:38:29;;;;;;;0.80;0.80;;;20.50;63.50;;;;;;5004357;28;95672;-66
2021/11/02 18:41:01;;;;;;;2.28;1.23;;;20.50;63.50;;;;;;5024151;27;99197;-66